Nearby METAR Reports

 

KSJC - San Jose, California, USA
Distance from station: NE 14km
Actualización: 30/01/2023 08:53
Few Clouds
Few Clouds
 Viento del NO
Viento: NO 15 km/h
Temperatura: 7°C
Temp.Sensacion: 4°C
Rocío: -2°C
Humedad: 53%
Barómetro: 1014.2 hPa
Clouds: Few Clouds
Visibilidad: 16 km
Cloud details: Few Clouds 1676 m
2023/01/30 07:53 KSJC 300753Z 31008KT 10SM FEW055 07/M02 A2995 RMK AO2 SLP141 T00671022 401220067
KNUQ - Moffett Nas/Mtn, California, USA
Distance from station: N 14km
Actualización: 30/01/2023 07:50
Cubierto
Cubierto
 Viento del N
Viento: N 11 km/h
Temperatura: 8°C
Temp.Sensacion: 6°C
Rocío: 5°C
Humedad: 82%
Barómetro: 1013.9 hPa
Clouds: Cubierto
Visibilidad: 16 km
Cloud details: Few Clouds 579 m
Few Clouds 732 m
Cubierto 1524 m
2023/01/30 06:50 KNUQ 300650Z AUTO 35006KT 10SM FEW019 FEW024 OVC050 08/05 A2994 RMK AO2
 
KPAO - Palo Alto, California, USA
Distance from station: NNO 23km
Actualización: 30/01/2023 05:47
NOT Current
Parcialmente nuboso
Parcialmente nuboso
 Viento del N
Viento: N 6 km/h
Temperatura: 8°C
Rocío: 4°C
Humedad: 76%
Barómetro: 1012.9 hPa
Clouds: Parcialmente nuboso
Visibilidad: 16 km
Cloud details: Parcialmente nuboso 914 m
2023/01/30 04:47 KPAO 300447Z 35003KT 10SM SCT030 08/04 A2991 RMK LAST
KRHV - San Jose/Reid, California, USA
Distance from station: ENE 19km
Actualización: 30/01/2023 00:51
NOT Current
Muy nuboso
Muy nuboso
 Viento del O
Viento: O 13 km/h
Temperatura: 10°C
Temp.Sensacion: 8°C
Rocío: 3°C
Humedad: 62%
Barómetro: 1009.8 hPa
Clouds: Muy nuboso
Visibilidad: 16 km
Cloud details: Parcialmente nuboso 762 m
Muy nuboso 1372 m
Muy nuboso 2134 m
2023/01/29 23:51 KRHV 292351Z 28007KT 10SM SCT025 BKN045 BKN070 10/03 A2982
 
KOAK - Oakland, California, USA
Distance from station: NNO 50km
Actualización: 30/01/2023 08:53
Few Clouds
Few Clouds
 Viento del N
Viento: N 13 km/h
Temperatura: 7°C
Temp.Sensacion: 5°C
Rocío: -5°C
Humedad: 42%
Barómetro: 1015.2 hPa
Clouds: Few Clouds
Visibilidad: 16 km
Cloud details: Few Clouds 2134 m
2023/01/30 07:53 KOAK 300753Z 01007KT 10SM FEW070 07/M05 A2998 RMK AO2 SLP150 T00671050 401060067
KSQL - San Carlos Airpo, California, USA
Distance from station: NO 34km
Actualización: 30/01/2023 08:55

 Viento del NNE
Viento: NNE 24 km/h
Temperatura: 8°C
Temp.Sensacion: 4°C
Rocío: -3°C
Humedad: 46%
Barómetro: 1014.9 hPa
Visibilidad: 16 km
2023/01/30 07:55 KSQL 300755Z AUTO 03013KT 10SM 08/M03 A2997 RMK AO2
 
KSFO - San Francisco, California, USA
Distance from station: NO 49km
Actualización: 30/01/2023 07:56
Muy nuboso
Muy nuboso
 Viento del N
Viento: N 31 km/h
Temperatura: 10°C
Temp.Sensacion: 7°C
Rocío: -2°C
Humedad: 43%
Barómetro: 1014.2 hPa
Clouds: Muy nuboso
Visibilidad: 16 km
Cloud details: Muy nuboso 1829 m
2023/01/30 06:56 KSFO 300656Z 36017KT 10SM BKN060 10/M02 A2995 RMK AO2 SLP142 T01001017 $
KE16 - San Martin, California, USA
Distance from station: ESE 43km
Actualización: 30/01/2023 08:35
Muy nuboso
Muy nuboso
 Viento del N
Viento: N 11 km/h
Temperatura: 5°C
Temp.Sensacion: 2°C
Rocío: 4°C
Humedad: 93%
Barómetro: 1013.9 hPa
Clouds: Muy nuboso
Visibilidad: 16 km
Cloud details: Few Clouds 1341 m
Muy nuboso 3048 m
Muy nuboso 3658 m
2023/01/30 07:35 KE16 300735Z AUTO 36006KT 10SM FEW044 BKN100 BKN120 05/04 A2994 RMK AO2 PWINO PNO
 
KWVI - Watsonville, California, USA
Distance from station: SSE 44km
Actualización: 30/01/2023 08:53
Muy nuboso
Muy nuboso
 Viento del N
Viento: N 6 km/h
Temperatura: 6°C
Rocío: 3°C
Humedad: 81%
Barómetro: 1013.2 hPa
Clouds: Muy nuboso
Visibilidad: 16 km
Cloud details: Muy nuboso 3353 m
2023/01/30 07:53 KWVI 300753Z AUTO 36003KT 10SM BKN110 06/03 A2992 RMK AO2 SLP132 T00560028 401280050
KHAF - Half Moon Bay, California, USA
Distance from station: ONO 50km
Actualización: 30/01/2023 08:55
Despejado
Despejado
 Viento del N
Viento: N 9 km/h, Racha: 19 km/h
Temperatura: 8°C
Temp.Sensacion: 6°C
Rocío: -7°C
Humedad: 34%
Barómetro: 1014.6 hPa
Clouds: Despejado
Visibilidad: 16 km
2023/01/30 07:55 KHAF 300755Z AUTO 01005G10KT 10SM CLR 08/M07 A2996 RMK AO2
 
KHWD - Hayward, California, USA
Distance from station: N 44km
Actualización: 30/01/2023 08:54
Despejado
Despejado
 Viento del NNE
Viento: NNE 26 km/h, Racha: 41 km/h
Temperatura: 8°C
Temp.Sensacion: 4°C
Rocío: -8°C
Humedad: 32%
Barómetro: 1014.6 hPa
Clouds: Despejado
Visibilidad: 16 km
2023/01/30 07:54 KHWD 300754Z AUTO 03014G22KT 10SM CLR 08/M08 A2996 RMK AO2 PK WND 03029/0710 SLP154 T00831078 401060078 $
KLVK - Livermore, California, USA
Distance from station: NNE 51km
Actualización: 30/01/2023 08:53
Few Clouds
Few Clouds
 Viento del ENE
Viento: ENE 9 km/h
Temperatura: 6°C
Temp.Sensacion: 4°C
Rocío: -6°C
Humedad: 42%
Barómetro: 1014.6 hPa
Clouds: Few Clouds
Visibilidad: 16 km
Cloud details: Few Clouds 1676 m
2023/01/30 07:53 KLVK 300753Z AUTO 07005KT 10SM FEW055 06/M06 A2996 RMK AO2 SLP144 T00561061 401060056